AFL0211 URSS-VTBS
Flight info
| Callsign | AFL0211 |
|---|---|
| Flight time | N/A |
| Altitude | 39000 |
| Route | DCT BINOL G487 GUBOR A944 RESLO B491 BISNA/N0483F390 M23 MARAL B450 BIBIM A909 LEMOD N644 DI M875 GUGAL/N0489F410 M875 LAPAN B209 JJS P646 PTN N895 BETNO P646 TARED WILLA1C |
| Aircraft | A359/H-VGDW/C |
Departure
| Time | 2026-05-01 11:24 |
|---|---|
| Airport | Sochi International Airport (URSS) |
Arrival
| Time | N/A |
|---|---|
| Airport | Suvarnabhumi Airport (VTBS) |
| Time | Latitude | Longitude | Altitude | Speed | Heading |
|---|---|---|---|---|---|
| 2026-05-01 11:04 | 43.44896 | 39.94667 | 87 ft | 0 kts | 348° |
| 2026-05-01 11:17 | 43.44887 | 39.94670 | 90 ft | 2 kts | 348° |
| 2026-05-01 11:17 | 43.44872 | 39.94675 | 90 ft | 3 kts | 355° |
| 2026-05-01 11:17 | 43.44851 | 39.94673 | 90 ft | 3 kts | 16° |
| 2026-05-01 11:17 | 43.44832 | 39.94662 | 90 ft | 3 kts | 37° |
| 2026-05-01 11:18 | 43.44825 | 39.94654 | 89 ft | 0 kts | 47° |
| 2026-05-01 11:19 | 43.44829 | 39.94660 | 90 ft | 3 kts | 47° |
| 2026-05-01 11:20 | 43.44852 | 39.94707 | 90 ft | 9 kts | 64° |
| 2026-05-01 11:20 | 43.44890 | 39.94822 | 93 ft | 17 kts | 65° |
| 2026-05-01 11:20 | 43.44946 | 39.94983 | 92 ft | 17 kts | 65° |
| 2026-05-01 11:20 | 43.45006 | 39.95122 | 95 ft | 17 kts | 57° |
| 2026-05-01 11:21 | 43.45058 | 39.95259 | 99 ft | 16 kts | 65° |
| 2026-05-01 11:21 | 43.45105 | 39.95394 | 101 ft | 16 kts | 62° |
| 2026-05-01 11:21 | 43.45164 | 39.95517 | 101 ft | 15 kts | 55° |
| 2026-05-01 11:21 | 43.45224 | 39.95639 | 102 ft | 12 kts | 57° |
| 2026-05-01 11:22 | 43.45226 | 39.95645 | 102 ft | 0 kts | 58° |
| 2026-05-01 11:22 | 43.45226 | 39.95646 | 102 ft | 0 kts | 58° |
| 2026-05-01 11:22 | 43.45235 | 39.95664 | 101 ft | 4 kts | 58° |
| 2026-05-01 11:23 | 43.45252 | 39.95703 | 100 ft | 5 kts | 58° |
| 2026-05-01 11:23 | 43.45273 | 39.95753 | 102 ft | 8 kts | 59° |
| 2026-05-01 11:23 | 43.45287 | 39.95820 | 103 ft | 5 kts | 117° |
| 2026-05-01 11:23 | 43.45266 | 39.95823 | 103 ft | 5 kts | 184° |
| 2026-05-01 11:24 | 43.45208 | 39.95793 | 100 ft | 11 kts | 207° |
| 2026-05-01 11:24 | 43.45037 | 39.95665 | 101 ft | 66 kts | 208° |
| 2026-05-01 11:24 | 43.43450 | 39.94501 | 921 ft | 150 kts | 209° |
| 2026-05-01 11:25 | 43.42601 | 39.93637 | 1566 ft | 165 kts | 240° |
| 2026-05-01 11:25 | 43.43196 | 39.90100 | 2382 ft | 235 kts | 304° |
| 2026-05-01 11:25 | 43.43676 | 39.87904 | 2694 ft | 255 kts | 267° |
| 2026-05-01 11:26 | 43.43239 | 39.85534 | 3399 ft | 258 kts | 248° |
| 2026-05-01 11:26 | 43.42042 | 39.80798 | 4897 ft | 266 kts | 251° |
| 2026-05-01 11:26 | 43.41537 | 39.78338 | 5685 ft | 268 kts | 252° |
| 2026-05-01 11:27 | 43.41071 | 39.75857 | 6521 ft | 268 kts | 253° |
| 2026-05-01 11:27 | 43.40622 | 39.73363 | 7304 ft | 270 kts | 253° |
| 2026-05-01 11:27 | 43.40182 | 39.70850 | 7810 ft | 271 kts | 254° |
| 2026-05-01 11:27 | 43.39748 | 39.68332 | 7989 ft | 271 kts | 254° |
| 2026-05-01 11:28 | 43.39316 | 39.65808 | 8006 ft | 272 kts | 255° |
| 2026-05-01 11:28 | 43.38893 | 39.63275 | 8009 ft | 272 kts | 256° |
| 2026-05-01 11:28 | 43.38621 | 39.60694 | 8013 ft | 273 kts | 262° |
| 2026-05-01 11:29 | 43.38267 | 39.55489 | 8016 ft | 273 kts | 262° |
| 2026-05-01 11:29 | 43.38092 | 39.52890 | 8017 ft | 273 kts | 262° |
| 2026-05-01 11:29 | 43.38538 | 39.47747 | 8024 ft | 280 kts | 297° |
| 2026-05-01 11:30 | 43.39855 | 39.45778 | 8083 ft | 285 kts | 324° |
| 2026-05-01 11:30 | 43.41720 | 39.44784 | 8482 ft | 293 kts | 347° |
| 2026-05-01 11:30 | 43.43739 | 39.44325 | 9335 ft | 295 kts | 349° |
| 2026-05-01 11:30 | 43.45772 | 39.43906 | 10189 ft | 296 kts | 348° |
| 2026-05-01 11:31 | 43.47865 | 39.43458 | 10604 ft | 314 kts | 348° |
| 2026-05-01 11:31 | 43.50117 | 39.43154 | 10877 ft | 338 kts | 359° |
| 2026-05-01 11:31 | 43.52500 | 39.43811 | 11168 ft | 361 kts | 16° |
| 2026-05-01 11:31 | 43.54939 | 39.44967 | 11483 ft | 379 kts | 18° |
| 2026-05-01 11:32 | 43.57428 | 39.46189 | 12010 ft | 388 kts | 18° |
| 2026-05-01 11:32 | 43.59994 | 39.47435 | 12674 ft | 394 kts | 17° |
| 2026-05-01 11:32 | 43.62601 | 39.48687 | 13334 ft | 400 kts | 17° |
| 2026-05-01 11:32 | 43.65248 | 39.49951 | 13955 ft | 405 kts | 17° |
| 2026-05-01 11:33 | 43.67917 | 39.51274 | 14531 ft | 411 kts | 20° |
| 2026-05-01 11:33 | 43.70406 | 39.53266 | 15134 ft | 419 kts | 38° |
| 2026-05-01 11:33 | 43.72346 | 39.56293 | 15736 ft | 425 kts | 58° |
| 2026-05-01 11:33 | 43.73508 | 39.60055 | 16280 ft | 429 kts | 77° |
| 2026-05-01 11:34 | 43.74132 | 39.64107 | 16853 ft | 433 kts | 81° |
| 2026-05-01 11:34 | 43.74689 | 39.68215 | 17411 ft | 438 kts | 81° |
| 2026-05-01 11:34 | 43.75275 | 39.72385 | 17953 ft | 445 kts | 80° |
| 2026-05-01 11:34 | 43.75885 | 39.76604 | 18487 ft | 449 kts | 80° |
| 2026-05-01 11:35 | 43.76507 | 39.80852 | 19038 ft | 453 kts | 80° |
| 2026-05-01 11:35 | 43.77141 | 39.85142 | 19604 ft | 457 kts | 79° |
| 2026-05-01 11:35 | 43.77783 | 39.89468 | 20172 ft | 461 kts | 80° |
| 2026-05-01 11:35 | 43.78430 | 39.93831 | 20668 ft | 465 kts | 80° |
| 2026-05-01 11:36 | 43.79036 | 39.98252 | 21222 ft | 469 kts | 81° |
| 2026-05-01 11:36 | 43.79605 | 40.02717 | 21744 ft | 474 kts | 82° |
| 2026-05-01 11:36 | 43.80163 | 40.07234 | 22317 ft | 477 kts | 82° |
| 2026-05-01 11:36 | 43.80724 | 40.11775 | 22901 ft | 481 kts | 82° |
| 2026-05-01 11:37 | 43.81296 | 40.16364 | 23442 ft | 486 kts | 82° |
| 2026-05-01 11:37 | 43.81879 | 40.21003 | 23930 ft | 490 kts | 82° |
| 2026-05-01 11:37 | 43.82471 | 40.25673 | 24418 ft | 495 kts | 82° |
| 2026-05-01 11:37 | 43.83068 | 40.30386 | 24807 ft | 499 kts | 82° |
| 2026-05-01 11:38 | 43.83670 | 40.35136 | 25314 ft | 502 kts | 82° |
| 2026-05-01 11:38 | 43.84272 | 40.39917 | 25810 ft | 506 kts | 82° |
| 2026-05-01 11:38 | 43.84878 | 40.44723 | 26270 ft | 509 kts | 82° |
| 2026-05-01 11:38 | 43.85488 | 40.49585 | 26717 ft | 513 kts | 82° |
| 2026-05-01 11:39 | 43.86097 | 40.54471 | 27168 ft | 516 kts | 82° |
| 2026-05-01 11:39 | 43.86708 | 40.59385 | 27658 ft | 520 kts | 82° |
| 2026-05-01 11:39 | 43.87322 | 40.64337 | 28122 ft | 523 kts | 82° |
| 2026-05-01 11:39 | 43.87918 | 40.69315 | 28586 ft | 525 kts | 84° |
| 2026-05-01 11:40 | 43.88273 | 40.74284 | 28982 ft | 527 kts | 87° |
| 2026-05-01 11:40 | 43.88547 | 40.79364 | 29346 ft | 531 kts | 88° |
| 2026-05-01 11:40 | 43.88784 | 40.84489 | 29723 ft | 534 kts | 89° |
| 2026-05-01 11:40 | 43.89002 | 40.89640 | 30118 ft | 536 kts | 89° |
| 2026-05-01 11:41 | 43.89214 | 40.94811 | 30449 ft | 538 kts | 89° |
| 2026-05-01 11:41 | 43.89425 | 41.00010 | 30753 ft | 542 kts | 89° |
| 2026-05-01 11:41 | 43.89569 | 41.03533 | 30944 ft | 543 kts | 89° |
| 2026-05-01 11:41 | 43.89785 | 41.08781 | 31235 ft | 545 kts | 89° |
| 2026-05-01 11:42 | 43.90000 | 41.14022 | 31638 ft | 545 kts | 89° |
| 2026-05-01 11:42 | 43.90213 | 41.19201 | 32027 ft | 544 kts | 89° |
| 2026-05-01 11:42 | 43.90426 | 41.24447 | 32410 ft | 544 kts | 89° |
| 2026-05-01 11:42 | 43.90637 | 41.29671 | 32796 ft | 544 kts | 89° |
| 2026-05-01 11:43 | 43.90846 | 41.34907 | 33195 ft | 543 kts | 89° |
| 2026-05-01 11:43 | 43.91052 | 41.40146 | 33553 ft | 543 kts | 89° |
| 2026-05-01 11:43 | 43.91254 | 41.45375 | 33903 ft | 543 kts | 89° |
| 2026-05-01 11:44 | 43.91652 | 41.55820 | 34578 ft | 541 kts | 89° |
| 2026-05-01 11:44 | 43.91847 | 41.61015 | 34952 ft | 539 kts | 89° |
| 2026-05-01 11:44 | 43.92033 | 41.66190 | 35310 ft | 537 kts | 89° |
| 2026-05-01 11:44 | 43.92212 | 41.71357 | 35616 ft | 535 kts | 89° |
| 2026-05-01 11:45 | 43.92387 | 41.76513 | 35912 ft | 535 kts | 89° |
| 2026-05-01 11:45 | 43.92559 | 41.81658 | 36211 ft | 534 kts | 89° |
| 2026-05-01 11:45 | 43.92730 | 41.86796 | 36472 ft | 533 kts | 89° |
| 2026-05-01 11:45 | 43.92899 | 41.91925 | 36755 ft | 532 kts | 89° |
| 2026-05-01 11:46 | 43.93067 | 41.97039 | 37062 ft | 530 kts | 89° |
| 2026-05-01 11:46 | 43.93232 | 42.02157 | 37343 ft | 529 kts | 89° |
| 2026-05-01 11:46 | 43.93394 | 42.07255 | 37553 ft | 529 kts | 89° |
| 2026-05-01 11:46 | 43.93555 | 42.12354 | 37832 ft | 528 kts | 90° |
| 2026-05-01 11:47 | 43.93712 | 42.17440 | 38131 ft | 526 kts | 90° |
| 2026-05-01 11:47 | 43.93867 | 42.22507 | 38398 ft | 525 kts | 90° |
| 2026-05-01 11:47 | 43.94018 | 42.27559 | 38646 ft | 524 kts | 90° |
| 2026-05-01 11:47 | 43.94168 | 42.32605 | 38792 ft | 524 kts | 90° |
| 2026-05-01 11:48 | 43.94316 | 42.37659 | 38919 ft | 525 kts | 90° |
| 2026-05-01 11:48 | 43.94461 | 42.42728 | 38957 ft | 527 kts | 90° |
| 2026-05-01 11:48 | 43.94747 | 42.52909 | 38966 ft | 527 kts | 90° |
| 2026-05-01 11:49 | 43.94615 | 42.63034 | 38970 ft | 522 kts | 102° |
| 2026-05-01 11:49 | 43.92988 | 42.72781 | 38973 ft | 517 kts | 109° |
| 2026-05-01 11:50 | 43.91052 | 42.82305 | 38975 ft | 516 kts | 110° |
| 2026-05-01 11:50 | 43.89055 | 42.91859 | 38980 ft | 515 kts | 110° |
| 2026-05-01 11:51 | 43.87076 | 43.01400 | 38982 ft | 514 kts | 109° |
| 2026-05-01 11:51 | 43.85109 | 43.10921 | 38986 ft | 514 kts | 109° |
| 2026-05-01 11:52 | 43.83141 | 43.20431 | 38984 ft | 513 kts | 110° |
| 2026-05-01 11:52 | 43.81163 | 43.29937 | 38978 ft | 513 kts | 110° |
| 2026-05-01 11:53 | 43.79177 | 43.39435 | 38982 ft | 513 kts | 110° |
| 2026-05-01 11:53 | 43.77185 | 43.48913 | 38982 ft | 513 kts | 110° |
| 2026-05-01 11:54 | 43.75185 | 43.58390 | 38982 ft | 513 kts | 110° |
| 2026-05-01 11:54 | 43.73176 | 43.67863 | 38985 ft | 513 kts | 110° |
| 2026-05-01 11:55 | 43.71158 | 43.77338 | 38984 ft | 513 kts | 110° |
| 2026-05-01 11:55 | 43.69133 | 43.86801 | 38982 ft | 514 kts | 110° |
| 2026-05-01 11:56 | 43.67099 | 43.96265 | 38981 ft | 514 kts | 110° |
| 2026-05-01 11:56 | 43.65055 | 44.05728 | 38982 ft | 514 kts | 110° |
| 2026-05-01 11:57 | 43.63018 | 44.15128 | 38985 ft | 514 kts | 110° |
| 2026-05-01 11:57 | 43.60975 | 44.24603 | 38984 ft | 515 kts | 110° |
| 2026-05-01 11:58 | 43.58933 | 44.34076 | 38986 ft | 515 kts | 110° |
| 2026-05-01 11:59 | 43.55857 | 44.48255 | 38988 ft | 514 kts | 110° |
| 2026-05-01 11:59 | 43.53797 | 44.57680 | 38991 ft | 513 kts | 110° |
| 2026-05-01 12:00 | 43.50696 | 44.71791 | 38986 ft | 513 kts | 111° |
| 2026-05-01 12:01 | 43.47578 | 44.85887 | 38977 ft | 513 kts | 111° |
| 2026-05-01 12:01 | 43.45492 | 44.95264 | 38969 ft | 512 kts | 111° |
| 2026-05-01 12:02 | 43.43401 | 45.04629 | 38965 ft | 512 kts | 111° |
| 2026-05-01 12:02 | 43.41300 | 45.13992 | 38961 ft | 512 kts | 111° |
| 2026-05-01 12:03 | 43.39196 | 45.23334 | 38962 ft | 512 kts | 111° |
| 2026-05-01 12:03 | 43.37088 | 45.32648 | 38958 ft | 513 kts | 111° |
| 2026-05-01 12:04 | 43.34948 | 45.42068 | 38960 ft | 513 kts | 111° |
| 2026-05-01 12:04 | 43.32826 | 45.51364 | 38962 ft | 514 kts | 111° |
| 2026-05-01 12:05 | 43.30677 | 45.60729 | 38963 ft | 514 kts | 112° |
| 2026-05-01 12:05 | 43.27409 | 45.74757 | 38967 ft | 515 kts | 112° |
| 2026-05-01 12:06 | 43.25218 | 45.84121 | 38953 ft | 515 kts | 112° |
| 2026-05-01 12:06 | 43.23022 | 45.93476 | 38947 ft | 516 kts | 112° |
| 2026-05-01 12:07 | 43.20817 | 46.02842 | 38942 ft | 516 kts | 112° |
| 2026-05-01 12:07 | 43.18611 | 46.12193 | 38943 ft | 516 kts | 111° |
| 2026-05-01 12:08 | 43.16438 | 46.21554 | 38932 ft | 515 kts | 111° |
| 2026-05-01 12:08 | 43.14267 | 46.30910 | 38939 ft | 515 kts | 111° |
| 2026-05-01 12:09 | 43.12107 | 46.40161 | 38937 ft | 514 kts | 111° |
| 2026-05-01 12:09 | 43.09915 | 46.49488 | 38935 ft | 514 kts | 111° |
| 2026-05-01 12:10 | 43.06622 | 46.63423 | 38939 ft | 513 kts | 111° |
| 2026-05-01 12:11 | 43.03314 | 46.77333 | 38943 ft | 513 kts | 111° |
| 2026-05-01 12:11 | 43.01103 | 46.86588 | 38944 ft | 512 kts | 111° |
| 2026-05-01 12:12 | 42.98891 | 46.95842 | 38948 ft | 512 kts | 111° |
| 2026-05-01 12:12 | 42.96666 | 47.05079 | 38965 ft | 512 kts | 111° |
| 2026-05-01 12:13 | 42.94437 | 47.14299 | 38964 ft | 511 kts | 111° |
| 2026-05-01 12:13 | 42.92204 | 47.23503 | 38971 ft | 510 kts | 112° |
| 2026-05-01 12:14 | 42.89969 | 47.32686 | 38978 ft | 510 kts | 112° |
| 2026-05-01 12:14 | 42.87740 | 47.41805 | 38987 ft | 509 kts | 112° |
| 2026-05-01 12:15 | 42.85495 | 47.50952 | 38990 ft | 509 kts | 112° |
| 2026-05-01 12:15 | 42.83246 | 47.60077 | 38992 ft | 508 kts | 112° |
| 2026-05-01 12:16 | 42.80576 | 47.69012 | 38992 ft | 505 kts | 118° |
| 2026-05-01 12:16 | 42.77609 | 47.77610 | 38993 ft | 504 kts | 119° |
| 2026-05-01 12:17 | 42.74574 | 47.86210 | 38994 ft | 504 kts | 120° |
| 2026-05-01 12:17 | 42.71532 | 47.94812 | 38999 ft | 504 kts | 119° |
| 2026-05-01 12:18 | 42.68495 | 48.03402 | 39003 ft | 504 kts | 119° |
| 2026-05-01 12:18 | 42.65452 | 48.11994 | 39005 ft | 504 kts | 120° |
| 2026-05-01 12:19 | 42.62401 | 48.20584 | 39011 ft | 505 kts | 120° |
| 2026-05-01 12:19 | 42.59343 | 48.29165 | 39017 ft | 505 kts | 120° |
| 2026-05-01 12:20 | 42.56275 | 48.37747 | 39016 ft | 506 kts | 120° |
| 2026-05-01 12:20 | 42.53218 | 48.46273 | 39015 ft | 506 kts | 120° |
| 2026-05-01 12:21 | 42.50133 | 48.54853 | 39018 ft | 507 kts | 120° |
| 2026-05-01 12:21 | 42.47036 | 48.63442 | 39019 ft | 507 kts | 120° |
| 2026-05-01 12:22 | 42.43931 | 48.72026 | 39019 ft | 508 kts | 120° |
| 2026-05-01 12:22 | 42.40821 | 48.80601 | 39022 ft | 508 kts | 120° |
| 2026-05-01 12:23 | 42.37700 | 48.89177 | 39022 ft | 508 kts | 120° |
| 2026-05-01 12:23 | 42.34573 | 48.97745 | 39022 ft | 508 kts | 120° |
| 2026-05-01 12:24 | 42.31439 | 49.06306 | 39026 ft | 508 kts | 120° |
| 2026-05-01 12:24 | 42.28301 | 49.14851 | 39026 ft | 508 kts | 120° |
| 2026-05-01 12:25 | 42.23577 | 49.27670 | 39026 ft | 508 kts | 120° |
| 2026-05-01 12:26 | 42.20394 | 49.36181 | 39029 ft | 508 kts | 121° |
| 2026-05-01 12:26 | 42.15544 | 49.48820 | 39035 ft | 508 kts | 121° |
| 2026-05-01 12:27 | 42.10678 | 49.61496 | 39035 ft | 508 kts | 121° |
| 2026-05-01 12:28 | 42.05808 | 49.74161 | 39043 ft | 508 kts | 121° |
| 2026-05-01 12:29 | 42.00923 | 49.86810 | 39047 ft | 508 kts | 121° |
| 2026-05-01 12:29 | 41.96043 | 49.99389 | 39056 ft | 508 kts | 121° |
| 2026-05-01 12:30 | 41.91128 | 50.12005 | 39064 ft | 508 kts | 121° |
| 2026-05-01 12:31 | 41.87843 | 50.20403 | 39065 ft | 508 kts | 121° |
| 2026-05-01 12:31 | 41.85083 | 50.27444 | 39066 ft | 508 kts | 121° |
| 2026-05-01 12:32 | 41.81808 | 50.35773 | 39082 ft | 508 kts | 121° |
| 2026-05-01 12:32 | 41.76852 | 50.48336 | 39082 ft | 508 kts | 121° |
| 2026-05-01 12:33 | 41.73540 | 50.56699 | 39087 ft | 508 kts | 121° |
| 2026-05-01 12:33 | 41.70221 | 50.65058 | 39090 ft | 508 kts | 121° |
| 2026-05-01 12:34 | 41.66897 | 50.73404 | 39095 ft | 509 kts | 122° |
| 2026-05-01 12:34 | 41.63558 | 50.81766 | 39098 ft | 509 kts | 122° |
| 2026-05-01 12:35 | 41.60218 | 50.90106 | 39105 ft | 509 kts | 122° |
| 2026-05-01 12:35 | 41.56870 | 50.98441 | 39110 ft | 509 kts | 122° |
| 2026-05-01 12:36 | 41.53538 | 51.06715 | 39106 ft | 509 kts | 122° |
| 2026-05-01 12:36 | 41.50180 | 51.15028 | 39114 ft | 509 kts | 122° |
| 2026-05-01 12:37 | 41.46812 | 51.23345 | 39113 ft | 510 kts | 122° |
| 2026-05-01 12:37 | 41.43434 | 51.31661 | 39115 ft | 510 kts | 122° |
| 2026-05-01 12:38 | 41.40052 | 51.39964 | 39118 ft | 510 kts | 122° |
| 2026-05-01 12:38 | 41.36660 | 51.48267 | 39123 ft | 510 kts | 122° |
| 2026-05-01 12:39 | 41.33277 | 51.56577 | 39119 ft | 511 kts | 121° |
| 2026-05-01 12:39 | 41.29908 | 51.64891 | 39123 ft | 511 kts | 121° |
| 2026-05-01 12:40 | 41.26528 | 51.73205 | 39124 ft | 511 kts | 122° |
| 2026-05-01 12:40 | 41.23140 | 51.81512 | 39125 ft | 511 kts | 122° |
| 2026-05-01 12:41 | 41.19741 | 51.89816 | 39128 ft | 511 kts | 122° |
| 2026-05-01 12:41 | 41.16338 | 51.98107 | 39126 ft | 512 kts | 122° |
| 2026-05-01 12:42 | 41.12924 | 52.06402 | 39128 ft | 512 kts | 122° |
| 2026-05-01 12:42 | 41.09526 | 52.14634 | 39127 ft | 512 kts | 122° |
| 2026-05-01 12:43 | 41.06098 | 52.22917 | 39131 ft | 512 kts | 122° |
| 2026-05-01 12:43 | 41.02666 | 52.31188 | 39130 ft | 512 kts | 122° |
| 2026-05-01 12:44 | 40.99224 | 52.39457 | 39131 ft | 512 kts | 122° |
| 2026-05-01 12:45 | 40.92322 | 52.55975 | 39126 ft | 513 kts | 122° |
| 2026-05-01 12:45 | 40.88866 | 52.64217 | 39137 ft | 513 kts | 122° |
| 2026-05-01 12:46 | 40.85386 | 52.72449 | 39134 ft | 513 kts | 122° |
| 2026-05-01 12:46 | 40.81917 | 52.80610 | 39132 ft | 513 kts | 122° |
| 2026-05-01 12:47 | 40.78422 | 52.88822 | 39129 ft | 513 kts | 122° |
| 2026-05-01 12:47 | 40.74923 | 52.97027 | 39126 ft | 513 kts | 122° |
| 2026-05-01 12:48 | 40.71418 | 53.05227 | 39133 ft | 513 kts | 122° |
| 2026-05-01 12:48 | 40.67904 | 53.13425 | 39128 ft | 514 kts | 122° |
| 2026-05-01 12:49 | 40.64386 | 53.21609 | 39127 ft | 514 kts | 122° |
| 2026-05-01 12:49 | 40.60878 | 53.29747 | 39124 ft | 514 kts | 122° |
| 2026-05-01 12:50 | 40.57346 | 53.37922 | 39125 ft | 514 kts | 122° |
| 2026-05-01 12:50 | 40.53806 | 53.46090 | 39123 ft | 514 kts | 122° |
| 2026-05-01 12:51 | 40.50257 | 53.54258 | 39122 ft | 515 kts | 122° |
| 2026-05-01 12:52 | 40.44922 | 53.66498 | 39120 ft | 515 kts | 122° |
| 2026-05-01 12:52 | 40.39569 | 53.78727 | 39111 ft | 515 kts | 122° |
| 2026-05-01 12:53 | 40.34203 | 53.90940 | 39110 ft | 515 kts | 122° |
| 2026-05-01 12:54 | 40.30612 | 53.99083 | 39105 ft | 515 kts | 123° |
| 2026-05-01 12:54 | 40.25222 | 54.11268 | 39099 ft | 515 kts | 123° |
| 2026-05-01 12:55 | 40.19819 | 54.23434 | 39101 ft | 516 kts | 123° |
| 2026-05-01 12:56 | 40.16205 | 54.31546 | 39102 ft | 516 kts | 123° |
| 2026-05-01 12:56 | 40.12586 | 54.39645 | 39100 ft | 516 kts | 123° |
| 2026-05-01 12:57 | 40.08965 | 54.47731 | 39101 ft | 516 kts | 123° |
| 2026-05-01 12:57 | 40.03541 | 54.59799 | 39096 ft | 516 kts | 123° |
| 2026-05-01 12:58 | 39.99902 | 54.67871 | 39100 ft | 516 kts | 123° |
| 2026-05-01 12:59 | 39.94432 | 54.79964 | 39103 ft | 516 kts | 123° |
| 2026-05-01 12:59 | 39.88952 | 54.92033 | 39099 ft | 516 kts | 123° |
| 2026-05-01 13:00 | 39.83446 | 55.04113 | 39103 ft | 517 kts | 123° |
| 2026-05-01 13:01 | 39.78050 | 55.16256 | 39099 ft | 517 kts | 122° |
| 2026-05-01 13:02 | 39.72718 | 55.28443 | 39095 ft | 517 kts | 122° |
| 2026-05-01 13:07 | 39.50104 | 56.22726 | 39100 ft | 524 kts | 109° |
| 2026-05-01 13:07 | 39.49080 | 56.27252 | 39103 ft | 524 kts | 109° |
| 2026-05-01 13:08 | 39.47044 | 56.36235 | 39101 ft | 524 kts | 109° |
| 2026-05-01 13:08 | 39.44983 | 56.45287 | 39100 ft | 524 kts | 109° |
| 2026-05-01 13:09 | 39.42913 | 56.54342 | 39101 ft | 524 kts | 109° |
| 2026-05-01 13:09 | 39.40840 | 56.63379 | 39106 ft | 525 kts | 109° |
| 2026-05-01 13:10 | 39.38755 | 56.72428 | 39101 ft | 525 kts | 109° |
| 2026-05-01 13:10 | 39.36662 | 56.81477 | 39103 ft | 525 kts | 109° |
| 2026-05-01 13:11 | 39.34444 | 56.90458 | 39101 ft | 525 kts | 111° |
| 2026-05-01 13:11 | 39.32099 | 56.99387 | 39100 ft | 525 kts | 111° |
| 2026-05-01 13:12 | 39.29762 | 57.08318 | 39101 ft | 525 kts | 111° |
| 2026-05-01 13:12 | 39.27442 | 57.17257 | 39102 ft | 526 kts | 111° |
| 2026-05-01 13:13 | 39.25123 | 57.26202 | 39099 ft | 526 kts | 111° |
| 2026-05-01 13:13 | 39.22795 | 57.35151 | 39101 ft | 526 kts | 111° |
| 2026-05-01 13:14 | 39.20461 | 57.44085 | 39102 ft | 526 kts | 111° |
| 2026-05-01 13:14 | 39.18114 | 57.53038 | 39104 ft | 527 kts | 111° |
| 2026-05-01 13:15 | 39.15760 | 57.61980 | 39099 ft | 527 kts | 111° |
| 2026-05-01 13:15 | 39.13398 | 57.70926 | 39099 ft | 527 kts | 111° |
| 2026-05-01 13:16 | 39.11027 | 57.79869 | 39100 ft | 528 kts | 112° |
| 2026-05-01 13:16 | 39.08648 | 57.88813 | 39094 ft | 528 kts | 112° |
| 2026-05-01 13:17 | 39.03883 | 58.06633 | 39105 ft | 529 kts | 112° |
| 2026-05-01 13:18 | 39.00276 | 58.20038 | 39103 ft | 529 kts | 112° |
| 2026-05-01 13:18 | 38.97859 | 58.28984 | 39105 ft | 530 kts | 112° |
| 2026-05-01 13:19 | 38.95433 | 58.37929 | 39103 ft | 530 kts | 112° |
| 2026-05-01 13:20 | 38.91783 | 58.51329 | 39103 ft | 531 kts | 112° |
| 2026-05-01 13:20 | 38.89747 | 58.58776 | 39101 ft | 531 kts | 112° |
| 2026-05-01 13:21 | 38.85214 | 58.71649 | 39105 ft | 527 kts | 120° |
| 2026-05-01 13:21 | 38.81913 | 58.80059 | 39104 ft | 528 kts | 121° |
| 2026-05-01 13:22 | 38.78593 | 58.88450 | 39103 ft | 528 kts | 121° |
| 2026-05-01 13:22 | 38.75273 | 58.96850 | 39101 ft | 528 kts | 121° |
| 2026-05-01 13:23 | 38.71955 | 59.05246 | 39103 ft | 529 kts | 121° |
| 2026-05-01 13:23 | 38.68629 | 59.13644 | 39104 ft | 529 kts | 121° |
| 2026-05-01 13:24 | 38.65300 | 59.22025 | 39105 ft | 529 kts | 121° |
| 2026-05-01 13:25 | 38.60277 | 59.34627 | 39108 ft | 530 kts | 121° |
| 2026-05-01 13:25 | 38.56989 | 59.43070 | 39106 ft | 531 kts | 119° |
| 2026-05-01 13:26 | 38.53857 | 59.51625 | 39110 ft | 532 kts | 118° |
| 2026-05-01 13:26 | 38.50725 | 59.60185 | 39105 ft | 532 kts | 119° |
| 2026-05-01 13:27 | 38.47559 | 59.68722 | 39109 ft | 532 kts | 119° |
| 2026-05-01 13:27 | 38.42769 | 59.81518 | 39112 ft | 533 kts | 119° |
| 2026-05-01 13:28 | 38.37964 | 59.94293 | 39111 ft | 533 kts | 120° |
| 2026-05-01 13:29 | 38.31553 | 60.11265 | 39114 ft | 534 kts | 120° |
| 2026-05-01 13:31 | 38.21836 | 60.36807 | 39117 ft | 535 kts | 120° |
| 2026-05-01 13:32 | 38.13679 | 60.58089 | 39119 ft | 536 kts | 120° |
| 2026-05-01 13:33 | 38.05461 | 60.79380 | 39120 ft | 537 kts | 120° |
| 2026-05-01 13:34 | 37.98852 | 60.96396 | 39121 ft | 538 kts | 120° |
| 2026-05-01 13:35 | 37.93897 | 61.09092 | 39121 ft | 539 kts | 121° |
| 2026-05-01 13:36 | 37.88900 | 61.21843 | 39124 ft | 539 kts | 121° |
| 2026-05-01 13:36 | 37.83878 | 61.34606 | 39124 ft | 540 kts | 121° |
| 2026-05-01 13:37 | 37.80519 | 61.43114 | 39126 ft | 541 kts | 121° |
| 2026-05-01 13:37 | 37.77153 | 61.51616 | 39128 ft | 541 kts | 121° |
| 2026-05-01 13:38 | 37.72086 | 61.64372 | 39130 ft | 542 kts | 121° |
| 2026-05-01 13:39 | 37.68697 | 61.72873 | 39130 ft | 542 kts | 121° |
| 2026-05-01 13:39 | 37.65300 | 61.81372 | 39124 ft | 542 kts | 121° |
| 2026-05-01 13:40 | 37.61725 | 61.89710 | 39129 ft | 537 kts | 130° |
| 2026-05-01 13:40 | 37.57430 | 61.97381 | 39127 ft | 535 kts | 131° |
| 2026-05-01 13:41 | 37.52999 | 62.04907 | 39114 ft | 535 kts | 132° |
| 2026-05-01 13:41 | 37.48548 | 62.12410 | 39123 ft | 535 kts | 132° |
| 2026-05-01 13:42 | 37.44134 | 62.19868 | 39122 ft | 535 kts | 132° |
| 2026-05-01 13:42 | 37.39690 | 62.27383 | 39124 ft | 535 kts | 132° |
| 2026-05-01 13:43 | 37.35245 | 62.34888 | 39119 ft | 536 kts | 132° |
| 2026-05-01 13:43 | 37.30787 | 62.42397 | 39125 ft | 536 kts | 133° |
| 2026-05-01 13:44 | 37.26325 | 62.49895 | 39120 ft | 536 kts | 133° |
| 2026-05-01 13:44 | 37.21850 | 62.57396 | 39126 ft | 537 kts | 133° |
| 2026-05-01 13:45 | 37.17371 | 62.64889 | 39126 ft | 538 kts | 133° |
| 2026-05-01 13:45 | 37.12869 | 62.72403 | 39127 ft | 539 kts | 133° |
| 2026-05-01 13:46 | 37.08361 | 62.79909 | 39128 ft | 540 kts | 133° |
| 2026-05-01 13:46 | 37.03841 | 62.87420 | 39129 ft | 540 kts | 133° |
| 2026-05-01 13:47 | 36.99307 | 62.94934 | 39131 ft | 541 kts | 133° |
| 2026-05-01 13:47 | 36.94763 | 63.02452 | 39133 ft | 542 kts | 133° |
| 2026-05-01 13:48 | 36.90210 | 63.09965 | 39132 ft | 542 kts | 133° |
| 2026-05-01 13:48 | 36.85650 | 63.17476 | 39132 ft | 543 kts | 134° |
| 2026-05-01 13:49 | 36.81077 | 63.24991 | 39130 ft | 543 kts | 134° |
| 2026-05-01 13:49 | 36.76499 | 63.32497 | 39128 ft | 544 kts | 134° |
| 2026-05-01 13:50 | 36.71913 | 63.39997 | 39130 ft | 544 kts | 134° |
| 2026-05-01 13:50 | 36.67345 | 63.47451 | 39128 ft | 545 kts | 134° |
| 2026-05-01 13:51 | 36.62739 | 63.54952 | 39122 ft | 546 kts | 134° |
| 2026-05-01 13:51 | 36.58123 | 63.62453 | 39126 ft | 546 kts | 134° |
| 2026-05-01 13:52 | 36.53500 | 63.69949 | 39120 ft | 547 kts | 134° |
| 2026-05-01 13:52 | 36.48869 | 63.77441 | 39112 ft | 547 kts | 134° |
| 2026-05-01 13:53 | 36.44220 | 63.84945 | 39117 ft | 548 kts | 134° |
| 2026-05-01 13:53 | 36.37234 | 63.96192 | 39117 ft | 549 kts | 134° |
| 2026-05-01 13:54 | 36.32566 | 64.03683 | 39113 ft | 549 kts | 135° |
| 2026-05-01 13:54 | 36.27886 | 64.11182 | 39110 ft | 550 kts | 135° |
| 2026-05-01 13:55 | 36.23200 | 64.18671 | 39107 ft | 550 kts | 135° |
| 2026-05-01 13:55 | 36.18498 | 64.26169 | 39104 ft | 551 kts | 135° |
| 2026-05-01 13:56 | 36.13823 | 64.33703 | 39105 ft | 553 kts | 133° |
| 2026-05-01 13:56 | 36.09309 | 64.41353 | 39098 ft | 555 kts | 132° |
| 2026-05-01 13:57 | 36.05517 | 64.47819 | 39108 ft | 555 kts | 133° |
| 2026-05-01 13:57 | 36.00219 | 64.56758 | 39104 ft | 555 kts | 133° |
| 2026-05-01 13:58 | 35.95641 | 64.64420 | 39109 ft | 555 kts | 133° |
| 2026-05-01 13:58 | 35.91052 | 64.72076 | 39116 ft | 555 kts | 133° |
| 2026-05-01 13:59 | 35.86459 | 64.79727 | 39116 ft | 555 kts | 133° |
| 2026-05-01 13:59 | 35.81861 | 64.87369 | 39129 ft | 555 kts | 133° |
| 2026-05-01 14:00 | 35.77259 | 64.95004 | 39123 ft | 555 kts | 133° |
| 2026-05-01 14:00 | 35.72653 | 65.02627 | 39123 ft | 555 kts | 133° |
| 2026-05-01 14:01 | 35.68033 | 65.10252 | 39130 ft | 556 kts | 133° |
| 2026-05-01 14:01 | 35.63406 | 65.17876 | 39123 ft | 556 kts | 133° |
| 2026-05-01 14:02 | 35.58780 | 65.25482 | 39119 ft | 556 kts | 133° |
| 2026-05-01 14:02 | 35.54149 | 65.33084 | 39116 ft | 555 kts | 133° |
| 2026-05-01 14:03 | 35.49520 | 65.40665 | 39112 ft | 555 kts | 133° |
| 2026-05-01 14:03 | 35.44882 | 65.48238 | 39106 ft | 555 kts | 133° |
| 2026-05-01 14:04 | 35.40244 | 65.55797 | 39100 ft | 555 kts | 133° |
| 2026-05-01 14:04 | 35.36387 | 65.62069 | 39095 ft | 554 kts | 133° |
| 2026-05-01 14:05 | 35.30994 | 65.70827 | 39102 ft | 554 kts | 133° |
| 2026-05-01 14:05 | 35.26360 | 65.78340 | 39084 ft | 553 kts | 133° |
| 2026-05-01 14:06 | 35.21707 | 65.85852 | 39074 ft | 555 kts | 133° |
| 2026-05-01 14:06 | 35.17034 | 65.93379 | 39076 ft | 556 kts | 133° |
| 2026-05-01 14:07 | 35.12355 | 66.00909 | 39069 ft | 555 kts | 133° |
| 2026-05-01 14:08 | 35.05341 | 66.12167 | 39058 ft | 556 kts | 133° |
| 2026-05-01 14:08 | 35.00646 | 66.19681 | 39051 ft | 556 kts | 133° |
| 2026-05-01 14:09 | 34.95960 | 66.27172 | 39043 ft | 555 kts | 134° |
| 2026-05-01 14:09 | 34.91251 | 66.34615 | 39042 ft | 555 kts | 134° |
| 2026-05-01 14:10 | 34.86506 | 66.42047 | 39033 ft | 556 kts | 134° |
| 2026-05-01 14:10 | 34.82550 | 66.48240 | 39020 ft | 557 kts | 134° |
| 2026-05-01 14:11 | 34.77798 | 66.55686 | 39013 ft | 557 kts | 134° |
| 2026-05-01 14:11 | 34.70657 | 66.66854 | 38999 ft | 558 kts | 135° |
| 2026-05-01 14:12 | 34.65884 | 66.74293 | 39003 ft | 558 kts | 134° |
| 2026-05-01 14:12 | 34.61119 | 66.81706 | 38991 ft | 558 kts | 134° |
| 2026-05-01 14:13 | 34.56362 | 66.89092 | 38984 ft | 558 kts | 134° |
| 2026-05-01 14:13 | 34.51569 | 66.96524 | 38968 ft | 559 kts | 134° |
| 2026-05-01 14:14 | 34.46771 | 67.03929 | 38975 ft | 558 kts | 134° |
| 2026-05-01 14:14 | 34.41969 | 67.11315 | 38975 ft | 558 kts | 134° |
| 2026-05-01 14:15 | 34.37166 | 67.18694 | 38961 ft | 557 kts | 134° |
| 2026-05-01 14:15 | 34.34763 | 67.22381 | 38820 ft | 557 kts | 134° |
| 2026-05-01 14:15 | 34.32364 | 67.26062 | 38603 ft | 556 kts | 134° |
| 2026-05-01 14:16 | 34.29964 | 67.29739 | 38347 ft | 558 kts | 134° |
| 2026-05-01 14:16 | 34.27549 | 67.33431 | 38068 ft | 560 kts | 134° |
| 2026-05-01 14:16 | 34.25125 | 67.37131 | 37807 ft | 562 kts | 134° |
| 2026-05-01 14:16 | 34.22698 | 67.40834 | 37591 ft | 563 kts | 134° |
| 2026-05-01 14:17 | 34.17825 | 67.48262 | 37850 ft | 563 kts | 134° |
| 2026-05-01 14:17 | 34.15398 | 67.51958 | 38133 ft | 561 kts | 134° |
| 2026-05-01 14:17 | 34.12971 | 67.55651 | 38325 ft | 561 kts | 134° |
| 2026-05-01 14:18 | 34.10546 | 67.59333 | 38599 ft | 559 kts | 134° |
| 2026-05-01 14:18 | 34.08128 | 67.63003 | 38821 ft | 557 kts | 134° |
| 2026-05-01 14:18 | 34.05745 | 67.66615 | 39001 ft | 557 kts | 134° |
| 2026-05-01 14:18 | 34.04119 | 67.69079 | 39067 ft | 557 kts | 134° |
| 2026-05-01 14:19 | 34.00924 | 67.73910 | 39240 ft | 556 kts | 134° |
| 2026-05-01 14:19 | 33.98513 | 67.77552 | 39407 ft | 555 kts | 134° |
| 2026-05-01 14:19 | 33.96104 | 67.81187 | 39565 ft | 554 kts | 134° |
| 2026-05-01 14:19 | 33.93680 | 67.84804 | 39672 ft | 555 kts | 135° |
| 2026-05-01 14:20 | 33.91245 | 67.88409 | 39836 ft | 554 kts | 135° |
| 2026-05-01 14:20 | 33.86386 | 67.95584 | 39926 ft | 552 kts | 135° |
| 2026-05-01 14:21 | 33.81532 | 68.02749 | 39912 ft | 552 kts | 135° |
| 2026-05-01 14:21 | 33.76676 | 68.09912 | 39897 ft | 553 kts | 134° |
| 2026-05-01 14:22 | 33.69360 | 68.20683 | 39877 ft | 556 kts | 135° |
| 2026-05-01 14:22 | 33.64474 | 68.27864 | 39865 ft | 554 kts | 135° |
| 2026-05-01 14:23 | 33.59601 | 68.35015 | 39837 ft | 554 kts | 135° |
| 2026-05-01 14:23 | 33.54750 | 68.42115 | 39817 ft | 553 kts | 135° |
| 2026-05-01 14:24 | 33.49814 | 68.49171 | 39808 ft | 551 kts | 136° |
| 2026-05-01 14:24 | 33.44822 | 68.56106 | 39796 ft | 550 kts | 136° |
| 2026-05-01 14:25 | 33.39833 | 68.63037 | 39789 ft | 549 kts | 136° |
| 2026-05-01 14:25 | 33.34863 | 68.69965 | 39787 ft | 548 kts | 136° |
| 2026-05-01 14:26 | 33.27421 | 68.80339 | 39790 ft | 548 kts | 136° |
| 2026-05-01 14:27 | 33.22660 | 68.87468 | 39789 ft | 550 kts | 132° |
| 2026-05-01 14:27 | 33.18065 | 68.94785 | 39801 ft | 550 kts | 131° |
| 2026-05-01 14:28 | 33.11134 | 69.05680 | 39800 ft | 549 kts | 132° |
| 2026-05-01 14:28 | 33.06469 | 69.12895 | 39803 ft | 549 kts | 132° |
| 2026-05-01 14:29 | 33.01793 | 69.20097 | 39802 ft | 550 kts | 132° |
| 2026-05-01 14:30 | 32.92408 | 69.34523 | 39808 ft | 552 kts | 132° |
| 2026-05-01 14:31 | 32.85353 | 69.45338 | 39805 ft | 552 kts | 132° |
| 2026-05-01 14:31 | 32.80635 | 69.52530 | 39805 ft | 551 kts | 132° |
| 2026-05-01 14:32 | 32.75917 | 69.59687 | 39814 ft | 550 kts | 132° |
| 2026-05-01 14:32 | 32.71199 | 69.66834 | 39812 ft | 549 kts | 132° |
| 2026-05-01 14:33 | 32.66493 | 69.73960 | 39806 ft | 548 kts | 132° |
| 2026-05-01 14:33 | 32.61792 | 69.81062 | 39800 ft | 547 kts | 132° |
| 2026-05-01 14:34 | 32.57121 | 69.88106 | 39796 ft | 547 kts | 132° |
| 2026-05-01 14:34 | 32.52412 | 69.95192 | 39785 ft | 547 kts | 132° |
| 2026-05-01 14:35 | 32.47707 | 70.02264 | 39765 ft | 547 kts | 132° |
| 2026-05-01 14:35 | 32.42988 | 70.09337 | 39747 ft | 547 kts | 132° |
| 2026-05-01 14:36 | 32.38266 | 70.16403 | 39729 ft | 548 kts | 132° |
| 2026-05-01 14:36 | 32.33571 | 70.23506 | 39709 ft | 549 kts | 131° |
| 2026-05-01 14:37 | 32.28944 | 70.30698 | 39695 ft | 550 kts | 131° |
| 2026-05-01 14:37 | 32.24313 | 70.37895 | 39685 ft | 550 kts | 131° |
| 2026-05-01 14:38 | 32.19660 | 70.45080 | 39673 ft | 551 kts | 131° |
| 2026-05-01 14:38 | 32.14989 | 70.52262 | 39666 ft | 551 kts | 131° |
| 2026-05-01 14:39 | 32.10319 | 70.59426 | 39662 ft | 551 kts | 131° |
| 2026-05-01 14:39 | 32.05676 | 70.66536 | 39660 ft | 550 kts | 131° |
| 2026-05-01 14:40 | 32.01006 | 70.73675 | 39659 ft | 550 kts | 131° |
| 2026-05-01 14:40 | 31.96329 | 70.80813 | 39653 ft | 550 kts | 131° |
| 2026-05-01 14:41 | 31.91725 | 70.88005 | 39651 ft | 552 kts | 126° |
| 2026-05-01 14:41 | 31.87917 | 70.95863 | 39648 ft | 553 kts | 121° |
| 2026-05-01 14:42 | 31.84317 | 71.03868 | 39649 ft | 553 kts | 120° |
| 2026-05-01 14:42 | 31.80743 | 71.11892 | 39648 ft | 553 kts | 120° |
| 2026-05-01 14:43 | 31.77157 | 71.19881 | 39645 ft | 553 kts | 120° |
| 2026-05-01 14:43 | 31.73551 | 71.27861 | 39650 ft | 553 kts | 120° |
| 2026-05-01 14:44 | 31.69940 | 71.35827 | 39650 ft | 552 kts | 120° |
| 2026-05-01 14:44 | 31.64516 | 71.47761 | 39652 ft | 552 kts | 120° |
| 2026-05-01 14:45 | 31.59089 | 71.59666 | 39659 ft | 552 kts | 120° |
| 2026-05-01 14:46 | 31.55467 | 71.67599 | 39659 ft | 551 kts | 120° |
| 2026-05-01 14:46 | 31.50036 | 71.79423 | 39662 ft | 551 kts | 120° |
| 2026-05-01 14:47 | 31.46397 | 71.87329 | 39667 ft | 551 kts | 120° |
| 2026-05-01 14:48 | 31.40928 | 71.99187 | 39673 ft | 552 kts | 120° |
| 2026-05-01 14:48 | 31.35451 | 72.11028 | 39672 ft | 552 kts | 120° |
| 2026-05-01 14:49 | 31.28125 | 72.26804 | 39679 ft | 552 kts | 120° |
| 2026-05-01 14:50 | 31.19625 | 72.41682 | 39683 ft | 550 kts | 128° |
| 2026-05-01 14:51 | 31.13013 | 72.52551 | 39683 ft | 550 kts | 128° |
| 2026-05-01 14:52 | 31.06381 | 72.63465 | 39686 ft | 550 kts | 128° |
| 2026-05-01 14:53 | 30.99749 | 72.74367 | 39679 ft | 550 kts | 128° |
| 2026-05-01 14:53 | 30.95319 | 72.81633 | 39676 ft | 550 kts | 128° |
| 2026-05-01 14:54 | 30.90886 | 72.88889 | 39677 ft | 549 kts | 128° |
| 2026-05-01 14:54 | 30.86451 | 72.96135 | 39680 ft | 549 kts | 128° |
| 2026-05-01 14:55 | 30.82015 | 73.03370 | 39675 ft | 549 kts | 128° |
| 2026-05-01 14:55 | 30.77581 | 73.10587 | 39675 ft | 549 kts | 128° |
| 2026-05-01 14:56 | 30.73138 | 73.17807 | 39674 ft | 548 kts | 128° |
| 2026-05-01 14:56 | 30.68702 | 73.25003 | 39672 ft | 548 kts | 128° |
| 2026-05-01 14:57 | 30.64295 | 73.32144 | 39675 ft | 547 kts | 128° |
| 2026-05-01 14:57 | 30.57640 | 73.42899 | 39667 ft | 547 kts | 128° |
| 2026-05-01 14:58 | 30.53203 | 73.50056 | 39664 ft | 546 kts | 128° |
| 2026-05-01 14:58 | 30.48759 | 73.57211 | 39672 ft | 546 kts | 128° |
| 2026-05-01 14:59 | 30.44311 | 73.64359 | 39657 ft | 546 kts | 128° |
| 2026-05-01 14:59 | 30.39858 | 73.71502 | 39668 ft | 547 kts | 128° |
| 2026-05-01 15:00 | 30.33920 | 73.81008 | 39653 ft | 547 kts | 128° |
| 2026-05-01 15:01 | 30.29462 | 73.88131 | 39649 ft | 547 kts | 128° |
| 2026-05-01 15:01 | 30.24993 | 73.95259 | 39655 ft | 547 kts | 128° |
| 2026-05-01 15:02 | 30.20529 | 74.02379 | 39654 ft | 547 kts | 127° |
| 2026-05-01 15:02 | 30.16066 | 74.09500 | 39640 ft | 546 kts | 127° |
| 2026-05-01 15:03 | 30.11606 | 74.16603 | 39646 ft | 546 kts | 127° |
| 2026-05-01 15:03 | 30.07165 | 74.23660 | 39644 ft | 546 kts | 127° |
| 2026-05-01 15:04 | 30.02697 | 74.30749 | 39644 ft | 546 kts | 127° |
| 2026-05-01 15:04 | 29.98224 | 74.37833 | 39645 ft | 546 kts | 127° |
| 2026-05-01 15:05 | 29.93745 | 74.44914 | 39644 ft | 546 kts | 127° |
| 2026-05-01 15:05 | 29.89267 | 74.51981 | 39650 ft | 546 kts | 127° |
| 2026-05-01 15:06 | 29.84783 | 74.59044 | 39647 ft | 546 kts | 128° |
| 2026-05-01 15:06 | 29.80291 | 74.66110 | 39648 ft | 546 kts | 128° |
| 2026-05-01 15:07 | 29.75801 | 74.73157 | 39649 ft | 546 kts | 127° |
| 2026-05-01 15:07 | 29.71333 | 74.80160 | 39648 ft | 546 kts | 128° |
| 2026-05-01 15:08 | 29.66830 | 74.87205 | 39651 ft | 546 kts | 128° |
| 2026-05-01 15:08 | 29.62330 | 74.94235 | 39654 ft | 546 kts | 128° |
| 2026-05-01 15:09 | 29.57832 | 75.01248 | 39652 ft | 546 kts | 128° |
| 2026-05-01 15:09 | 29.53324 | 75.08264 | 39655 ft | 545 kts | 128° |
| 2026-05-01 15:10 | 29.48818 | 75.15267 | 39655 ft | 545 kts | 128° |
| 2026-05-01 15:10 | 29.42049 | 75.25762 | 39659 ft | 545 kts | 128° |
| 2026-05-01 15:11 | 29.35281 | 75.36229 | 39664 ft | 545 kts | 128° |
| 2026-05-01 15:12 | 29.30765 | 75.43201 | 39667 ft | 545 kts | 128° |
| 2026-05-01 15:12 | 29.23943 | 75.53609 | 39669 ft | 545 kts | 128° |
| 2026-05-01 15:14 | 29.12557 | 75.70926 | 39674 ft | 545 kts | 128° |
| 2026-05-01 15:14 | 29.05719 | 75.81303 | 39675 ft | 544 kts | 128° |
| 2026-05-01 15:15 | 28.96629 | 75.95056 | 39681 ft | 543 kts | 128° |
| 2026-05-01 15:16 | 28.87509 | 76.08809 | 39683 ft | 543 kts | 128° |
| 2026-05-01 15:18 | 28.76095 | 76.25958 | 39686 ft | 543 kts | 128° |
| 2026-05-01 15:19 | 28.66958 | 76.39636 | 39690 ft | 542 kts | 128° |
| 2026-05-01 15:19 | 28.62382 | 76.46468 | 39400 ft | 543 kts | 128° |
| 2026-05-01 15:19 | 28.60092 | 76.49885 | 39169 ft | 544 kts | 128° |
| 2026-05-01 15:20 | 28.55485 | 76.56747 | 38746 ft | 546 kts | 128° |
| 2026-05-01 15:20 | 28.53180 | 76.60176 | 38705 ft | 547 kts | 128° |
| 2026-05-01 15:21 | 28.48553 | 76.67053 | 38696 ft | 548 kts | 128° |
| 2026-05-01 15:21 | 28.43923 | 76.73921 | 38698 ft | 548 kts | 128° |
| 2026-05-01 15:22 | 28.36968 | 76.84219 | 38702 ft | 547 kts | 128° |
| 2026-05-01 15:22 | 28.32327 | 76.91077 | 38702 ft | 547 kts | 128° |
| 2026-05-01 15:23 | 28.27714 | 76.97882 | 38701 ft | 547 kts | 128° |
| 2026-05-01 15:23 | 28.23070 | 77.04722 | 38701 ft | 547 kts | 128° |
| 2026-05-01 15:24 | 28.18422 | 77.11557 | 38700 ft | 547 kts | 128° |
| 2026-05-01 15:24 | 28.13775 | 77.18380 | 38697 ft | 547 kts | 128° |
| 2026-05-01 15:25 | 28.09125 | 77.25197 | 38692 ft | 547 kts | 128° |
| 2026-05-01 15:25 | 28.04471 | 77.32008 | 38692 ft | 547 kts | 128° |
| 2026-05-01 15:26 | 27.99814 | 77.38813 | 38688 ft | 547 kts | 128° |
| 2026-05-01 15:26 | 27.95152 | 77.45614 | 38686 ft | 547 kts | 128° |
| 2026-05-01 15:27 | 27.90491 | 77.52403 | 38686 ft | 546 kts | 128° |
| 2026-05-01 15:28 | 27.83493 | 77.62576 | 38679 ft | 546 kts | 128° |
| 2026-05-01 15:28 | 27.78826 | 77.69347 | 38679 ft | 546 kts | 128° |
| 2026-05-01 15:29 | 27.71818 | 77.79495 | 38672 ft | 546 kts | 128° |
| 2026-05-01 15:30 | 27.62485 | 77.92973 | 38669 ft | 546 kts | 128° |
| 2026-05-01 15:31 | 27.48426 | 78.13197 | 38666 ft | 546 kts | 128° |
| 2026-05-01 15:32 | 27.39043 | 78.26643 | 38666 ft | 545 kts | 128° |
| 2026-05-01 15:34 | 27.25010 | 78.46676 | 38666 ft | 544 kts | 128° |